sensor_id;sensor_type;location;lat;lon;timestamp;pressure;altitude;pressure_sealevel;temperature;humidity
70437;BME280;57877;39.750;-104.894;2023-05-22T00:01:41;83823.15;;;23.34;14.77
70437;BME280;57877;39.750;-104.894;2023-05-22T00:04:06;83823.99;;;23.21;14.84
70437;BME280;57877;39.750;-104.894;2023-05-22T00:06:31;83821.62;;;23.04;14.60
70437;BME280;57877;39.750;-104.894;2023-05-22T00:08:56;83822.79;;;23.49;14.59
70437;BME280;57877;39.750;-104.894;2023-05-22T00:11:22;83819.27;;;23.22;15.08
70437;BME280;57877;39.750;-104.894;2023-05-22T00:13:47;83815.79;;;23.41;15.26
70437;BME280;57877;39.750;-104.894;2023-05-22T00:16:11;83816.03;;;23.23;14.97
70437;BME280;57877;39.750;-104.894;2023-05-22T00:18:36;83817.08;;;23.52;14.75
70437;BME280;57877;39.750;-104.894;2023-05-22T00:21:02;83813.00;;;23.59;14.45
70437;BME280;57877;39.750;-104.894;2023-05-22T00:23:26;83814.50;;;24.28;14.03
70437;BME280;57877;39.750;-104.894;2023-05-22T00:25:52;83813.30;;;24.39;14.06
70437;BME280;57877;39.750;-104.894;2023-05-22T00:28:17;83812.34;;;24.06;14.32
70437;BME280;57877;39.750;-104.894;2023-05-22T00:30:42;83810.32;;;23.84;14.82
70437;BME280;57877;39.750;-104.894;2023-05-22T00:33:07;83808.93;;;23.01;15.61
70437;BME280;57877;39.750;-104.894;2023-05-22T00:35:32;83812.40;;;23.22;16.44
70437;BME280;57877;39.750;-104.894;2023-05-22T00:37:57;83810.62;;;22.92;16.76
70437;BME280;57877;39.750;-104.894;2023-05-22T00:40:22;83810.28;;;23.15;16.80
70437;BME280;57877;39.750;-104.894;2023-05-22T00:42:47;83813.88;;;22.81;16.38
70437;BME280;57877;39.750;-104.894;2023-05-22T00:45:13;83812.32;;;23.76;16.21
70437;BME280;57877;39.750;-104.894;2023-05-22T00:47:37;83814.04;;;23.49;16.06
70437;BME280;57877;39.750;-104.894;2023-05-22T00:50:02;83817.36;;;23.41;15.91
70437;BME280;57877;39.750;-104.894;2023-05-22T00:52:27;83816.40;;;22.91;16.24
70437;BME280;57877;39.750;-104.894;2023-05-22T00:54:53;83814.44;;;22.93;16.50
70437;BME280;57877;39.750;-104.894;2023-05-22T00:57:18;83812.27;;;23.63;15.65
70437;BME280;57877;39.750;-104.894;2023-05-22T00:59:43;83811.55;;;24.59;15.36
70437;BME280;57877;39.750;-104.894;2023-05-22T01:02:08;83809.79;;;24.11;15.25
70437;BME280;57877;39.750;-104.894;2023-05-22T01:04:32;83805.61;;;24.29;15.31
70437;BME280;57877;39.750;-104.894;2023-05-22T01:06:58;83803.44;;;23.86;15.50
70437;BME280;57877;39.750;-104.894;2023-05-22T01:09:22;83807.56;;;23.40;16.48
70437;BME280;57877;39.750;-104.894;2023-05-22T01:11:54;83808.38;;;23.26;16.71
70437;BME280;57877;39.750;-104.894;2023-05-22T01:14:19;83806.61;;;22.77;16.75
70437;BME280;57877;39.750;-104.894;2023-05-22T01:16:44;83807.59;;;23.14;16.61
70437;BME280;57877;39.750;-104.894;2023-05-22T01:19:09;83808.79;;;23.31;16.92
70437;BME280;57877;39.750;-104.894;2023-05-22T01:21:36;83805.68;;;22.52;16.93
70437;BME280;57877;39.750;-104.894;2023-05-22T01:24:11;83809.40;;;23.26;16.36
70437;BME280;57877;39.750;-104.894;2023-05-22T01:26:27;83808.10;;;23.03;16.42
70437;BME280;57877;39.750;-104.894;2023-05-22T01:28:55;83808.70;;;22.06;17.93
70437;BME280;57877;39.750;-104.894;2023-05-22T01:31:11;83811.91;;;22.46;17.88
70437;BME280;57877;39.750;-104.894;2023-05-22T01:33:40;83810.06;;;23.00;17.74
70437;BME280;57877;39.750;-104.894;2023-05-22T01:36:01;83808.66;;;22.56;18.06
70437;BME280;57877;39.750;-104.894;2023-05-22T01:38:24;83809.50;;;21.81;18.53
70437;BME280;57877;39.750;-104.894;2023-05-22T01:40:49;83812.39;;;22.76;18.10
70437;BME280;57877;39.750;-104.894;2023-05-22T01:43:15;83815.72;;;22.74;17.78
70437;BME280;57877;39.750;-104.894;2023-05-22T01:45:39;83816.59;;;22.82;17.80
70437;BME280;57877;39.750;-104.894;2023-05-22T01:48:04;83818.21;;;22.08;18.20
70437;BME280;57877;39.750;-104.894;2023-05-22T01:50:29;83818.77;;;22.10;18.53
70437;BME280;57877;39.750;-104.894;2023-05-22T01:53:01;83817.11;;;22.03;18.92
70437;BME280;57877;39.750;-104.894;2023-05-22T01:55:25;83819.17;;;22.24;18.57
70437;BME280;57877;39.750;-104.894;2023-05-22T01:57:52;83821.44;;;22.21;18.49
70437;BME280;57877;39.750;-104.894;2023-05-22T02:00:13;83823.53;;;22.65;18.17
70437;BME280;57877;39.750;-104.894;2023-05-22T02:02:37;83826.91;;;21.78;18.89
70437;BME280;57877;39.750;-104.894;2023-05-22T02:05:03;83826.75;;;22.17;18.89
70437;BME280;57877;39.750;-104.894;2023-05-22T02:07:26;83828.81;;;22.39;19.06
70437;BME280;57877;39.750;-104.894;2023-05-22T02:09:51;83834.95;;;21.99;19.26
70437;BME280;57877;39.750;-104.894;2023-05-22T02:12:15;83839.74;;;22.12;19.22
70437;BME280;57877;39.750;-104.894;2023-05-22T02:14:42;83840.46;;;22.11;19.28
70437;BME280;57877;39.750;-104.894;2023-05-22T02:17:06;83841.32;;;21.93;19.47
70437;BME280;57877;39.750;-104.894;2023-05-22T02:19:34;83840.24;;;22.02;19.44
70437;BME280;57877;39.750;-104.894;2023-05-22T02:21:58;83844.59;;;22.04;19.39
70437;BME280;57877;39.750;-104.894;2023-05-22T02:24:24;83846.37;;;22.23;19.62
70437;BME280;57877;39.750;-104.894;2023-05-22T02:26:50;83848.28;;;22.27;19.74
70437;BME280;57877;39.750;-104.894;2023-05-22T02:29:15;83847.69;;;21.79;20.11
70437;BME280;57877;39.750;-104.894;2023-05-22T02:31:39;83850.58;;;21.59;20.02
70437;BME280;57877;39.750;-104.894;2023-05-22T02:34:06;83851.00;;;21.86;20.00
70437;BME280;57877;39.750;-104.894;2023-05-22T02:36:30;83850.68;;;21.71;20.13
70437;BME280;57877;39.750;-104.894;2023-05-22T02:38:55;83853.31;;;21.95;19.93
70437;BME280;57877;39.750;-104.894;2023-05-22T02:41:20;83856.64;;;21.70;20.11
70437;BME280;57877;39.750;-104.894;2023-05-22T02:43:45;83857.90;;;21.50;20.25
70437;BME280;57877;39.750;-104.894;2023-05-22T02:46:10;83859.79;;;21.88;20.20
70437;BME280;57877;39.750;-104.894;2023-05-22T02:48:35;83861.73;;;21.37;20.43
70437;BME280;57877;39.750;-104.894;2023-05-22T02:51:00;83862.48;;;21.61;20.47
70437;BME280;57877;39.750;-104.894;2023-05-22T02:53:26;83861.85;;;21.56;20.60
70437;BME280;57877;39.750;-104.894;2023-05-22T02:55:50;83865.28;;;21.67;20.37
70437;BME280;57877;39.750;-104.894;2023-05-22T02:58:15;83869.70;;;21.40;20.19
70437;BME280;57877;39.750;-104.894;2023-05-22T03:00:40;83871.13;;;21.98;19.99
70437;BME280;57877;39.750;-104.894;2023-05-22T03:03:06;83874.07;;;21.55;20.33
70437;BME280;57877;39.750;-104.894;2023-05-22T03:05:30;83875.78;;;21.20;20.57
70437;BME280;57877;39.750;-104.894;2023-05-22T03:07:55;83877.93;;;21.52;20.42
70437;BME280;57877;39.750;-104.894;2023-05-22T03:10:22;83879.70;;;21.75;20.16
70437;BME280;57877;39.750;-104.894;2023-05-22T03:12:46;83881.47;;;21.13;20.19
70437;BME280;57877;39.750;-104.894;2023-05-22T03:15:11;83885.29;;;21.27;20.37
70437;BME280;57877;39.750;-104.894;2023-05-22T03:17:35;83889.21;;;21.05;20.71
70437;BME280;57877;39.750;-104.894;2023-05-22T03:20:01;83893.16;;;20.87;21.00
70437;BME280;57877;39.750;-104.894;2023-05-22T03:22:26;83894.78;;;20.92;20.89
70437;BME280;57877;39.750;-104.894;2023-05-22T03:24:51;83895.14;;;20.86;21.29
70437;BME280;57877;39.750;-104.894;2023-05-22T03:27:16;83894.60;;;21.15;21.20
70437;BME280;57877;39.750;-104.894;2023-05-22T03:29:41;83895.15;;;21.35;21.18
70437;BME280;57877;39.750;-104.894;2023-05-22T03:32:07;83894.45;;;21.31;21.29
70437;BME280;57877;39.750;-104.894;2023-05-22T03:34:31;83892.40;;;21.14;21.58
70437;BME280;57877;39.750;-104.894;2023-05-22T03:36:56;83893.43;;;21.13;21.83
70437;BME280;57877;39.750;-104.894;2023-05-22T03:39:21;83893.40;;;20.98;22.21
70437;BME280;57877;39.750;-104.894;2023-05-22T03:41:46;83896.31;;;20.65;22.78
70437;BME280;57877;39.750;-104.894;2023-05-22T03:44:11;83897.93;;;20.71;23.00
70437;BME280;57877;39.750;-104.894;2023-05-22T03:46:36;83899.98;;;20.86;23.26
70437;BME280;57877;39.750;-104.894;2023-05-22T03:49:01;83903.03;;;20.89;23.40
70437;BME280;57877;39.750;-104.894;2023-05-22T03:51:26;83905.89;;;20.51;23.48
70437;BME280;57877;39.750;-104.894;2023-05-22T03:53:51;83904.06;;;20.51;23.43
70437;BME280;57877;39.750;-104.894;2023-05-22T03:56:16;83903.38;;;20.39;24.00
70437;BME280;57877;39.750;-104.894;2023-05-22T03:58:42;83903.02;;;20.33;23.92
70437;BME280;57877;39.750;-104.894;2023-05-22T04:01:06;83903.79;;;20.43;24.15
70437;BME280;57877;39.750;-104.894;2023-05-22T04:03:32;83904.97;;;20.13;24.36
70437;BME280;57877;39.750;-104.894;2023-05-22T04:05:57;83902.66;;;20.33;24.54
70437;BME280;57877;39.750;-104.894;2023-05-22T04:08:22;83903.04;;;20.00;24.78
70437;BME280;57877;39.750;-104.894;2023-05-22T04:10:47;83900.32;;;20.06;24.78
70437;BME280;57877;39.750;-104.894;2023-05-22T04:13:14;83897.67;;;20.39;24.73
70437;BME280;57877;39.750;-104.894;2023-05-22T04:15:37;83896.88;;;20.19;25.00
70437;BME280;57877;39.750;-104.894;2023-05-22T04:18:02;83899.91;;;19.82;25.23
70437;BME280;57877;39.750;-104.894;2023-05-22T04:20:27;83901.43;;;19.82;25.41
70437;BME280;57877;39.750;-104.894;2023-05-22T04:22:52;83902.25;;;19.72;25.38
70437;BME280;57877;39.750;-104.894;2023-05-22T04:25:17;83899.37;;;19.97;25.31
70437;BME280;57877;39.750;-104.894;2023-05-22T04:27:42;83904.87;;;19.77;25.43
70437;BME280;57877;39.750;-104.894;2023-05-22T04:30:08;83907.04;;;19.73;25.52
70437;BME280;57877;39.750;-104.894;2023-05-22T04:32:32;83904.69;;;19.65;25.60
70437;BME280;57877;39.750;-104.894;2023-05-22T04:34:58;83904.13;;;19.68;25.50
70437;BME280;57877;39.750;-104.894;2023-05-22T04:37:23;83904.72;;;19.45;25.71
70437;BME280;57877;39.750;-104.894;2023-05-22T04:39:48;83901.60;;;19.76;25.43
70437;BME280;57877;39.750;-104.894;2023-05-22T04:42:14;83896.97;;;19.60;25.49
70437;BME280;57877;39.750;-104.894;2023-05-22T04:44:39;83900.70;;;19.40;25.63
70437;BME280;57877;39.750;-104.894;2023-05-22T04:47:04;83901.00;;;19.27;25.69
70437;BME280;57877;39.750;-104.894;2023-05-22T04:49:28;83899.06;;;19.28;25.87
70437;BME280;57877;39.750;-104.894;2023-05-22T04:51:54;83899.79;;;19.46;26.14
70437;BME280;57877;39.750;-104.894;2023-05-22T04:54:19;83898.64;;;19.14;26.07
70437;BME280;57877;39.750;-104.894;2023-05-22T04:56:44;83898.21;;;19.17;25.66
70437;BME280;57877;39.750;-104.894;2023-05-22T04:59:09;83896.43;;;19.14;25.53
70437;BME280;57877;39.750;-104.894;2023-05-22T05:01:34;83896.42;;;19.16;25.85
70437;BME280;57877;39.750;-104.894;2023-05-22T05:04:00;83896.50;;;19.16;26.25
70437;BME280;57877;39.750;-104.894;2023-05-22T05:06:25;83896.76;;;19.40;26.51
70437;BME280;57877;39.750;-104.894;2023-05-22T05:08:50;83900.26;;;18.89;26.52
70437;BME280;57877;39.750;-104.894;2023-05-22T05:11:15;83902.41;;;19.03;27.03
70437;BME280;57877;39.750;-104.894;2023-05-22T05:13:40;83909.89;;;18.72;27.32
70437;BME280;57877;39.750;-104.894;2023-05-22T05:16:05;83913.39;;;18.47;27.55
70437;BME280;57877;39.750;-104.894;2023-05-22T05:18:31;83913.41;;;18.57;27.48
70437;BME280;57877;39.750;-104.894;2023-05-22T05:20:55;83910.44;;;18.61;27.38
70437;BME280;57877;39.750;-104.894;2023-05-22T05:23:20;83907.81;;;18.34;27.36
70437;BME280;57877;39.750;-104.894;2023-05-22T05:25:45;83907.80;;;18.65;27.26
70437;BME280;57877;39.750;-104.894;2023-05-22T05:28:11;83911.94;;;18.41;27.47
70437;BME280;57877;39.750;-104.894;2023-05-22T05:30:35;83912.30;;;18.35;27.36
70437;BME280;57877;39.750;-104.894;2023-05-22T05:33:00;83915.56;;;18.38;27.15
70437;BME280;57877;39.750;-104.894;2023-05-22T05:35:25;83917.49;;;18.02;27.76
70437;BME280;57877;39.750;-104.894;2023-05-22T05:37:50;83921.21;;;18.20;27.51
70437;BME280;57877;39.750;-104.894;2023-05-22T05:40:16;83920.51;;;18.22;27.69
70437;BME280;57877;39.750;-104.894;2023-05-22T05:42:41;83924.24;;;18.38;27.47
70437;BME280;57877;39.750;-104.894;2023-05-22T05:45:07;83921.49;;;18.30;27.32
70437;BME280;57877;39.750;-104.894;2023-05-22T05:47:31;83922.39;;;18.23;27.34
70437;BME280;57877;39.750;-104.894;2023-05-22T05:49:56;83924.38;;;18.91;27.46
70437;BME280;57877;39.750;-104.894;2023-05-22T05:52:21;83923.55;;;18.09;27.83
70437;BME280;57877;39.750;-104.894;2023-05-22T05:54:46;83921.47;;;18.30;28.12
70437;BME280;57877;39.750;-104.894;2023-05-22T05:57:13;83921.25;;;18.35;28.21
70437;BME280;57877;39.750;-104.894;2023-05-22T05:59:36;83917.64;;;18.24;27.77
70437;BME280;57877;39.750;-104.894;2023-05-22T06:02:02;83917.03;;;18.05;28.41
70437;BME280;57877;39.750;-104.894;2023-05-22T06:04:28;83915.02;;;17.79;28.61
70437;BME280;57877;39.750;-104.894;2023-05-22T06:06:53;83914.87;;;17.66;29.21
70437;BME280;57877;39.750;-104.894;2023-05-22T06:09:18;83915.75;;;17.93;28.68
70437;BME280;57877;39.750;-104.894;2023-05-22T06:11:43;83914.40;;;17.91;28.84
70437;BME280;57877;39.750;-104.894;2023-05-22T06:14:08;83914.22;;;17.85;29.00
70437;BME280;57877;39.750;-104.894;2023-05-22T06:16:34;83912.28;;;17.80;28.79
70437;BME280;57877;39.750;-104.894;2023-05-22T06:18:59;83913.12;;;17.74;29.01
70437;BME280;57877;39.750;-104.894;2023-05-22T06:21:24;83910.29;;;17.30;29.61
70437;BME280;57877;39.750;-104.894;2023-05-22T06:23:50;83905.96;;;17.53;29.47
70437;BME280;57877;39.750;-104.894;2023-05-22T06:26:17;83903.52;;;17.77;29.48
70437;BME280;57877;39.750;-104.894;2023-05-22T06:28:41;83901.70;;;17.70;29.81
70437;BME280;57877;39.750;-104.894;2023-05-22T06:31:07;83903.31;;;17.65;29.83
70437;BME280;57877;39.750;-104.894;2023-05-22T06:33:34;83898.75;;;17.06;30.10
70437;BME280;57877;39.750;-104.894;2023-05-22T06:35:58;83897.52;;;17.35;29.88
70437;BME280;57877;39.750;-104.894;2023-05-22T06:38:24;83899.37;;;17.46;29.76
70437;BME280;57877;39.750;-104.894;2023-05-22T06:40:51;83896.36;;;17.28;29.85
70437;BME280;57877;39.750;-104.894;2023-05-22T06:43:17;83894.55;;;16.91;30.21
70437;BME280;57877;39.750;-104.894;2023-05-22T06:45:42;83895.10;;;16.92;30.34
70437;BME280;57877;39.750;-104.894;2023-05-22T06:48:07;83895.26;;;16.91;30.56
70437;BME280;57877;39.750;-104.894;2023-05-22T06:50:32;83896.23;;;16.77;30.64
70437;BME280;57877;39.750;-104.894;2023-05-22T06:52:57;83896.61;;;17.14;30.75
70437;BME280;57877;39.750;-104.894;2023-05-22T06:55:22;83897.17;;;16.77;30.54
70437;BME280;57877;39.750;-104.894;2023-05-22T06:57:48;83896.58;;;16.89;30.53
70437;BME280;57877;39.750;-104.894;2023-05-22T07:00:14;83895.34;;;16.45;30.40
70437;BME280;57877;39.750;-104.894;2023-05-22T07:02:38;83895.44;;;16.83;30.24
70437;BME280;57877;39.750;-104.894;2023-05-22T07:05:06;83891.93;;;16.35;30.36
70437;BME280;57877;39.750;-104.894;2023-05-22T07:07:30;83891.39;;;16.83;30.23
70437;BME280;57877;39.750;-104.894;2023-05-22T07:09:55;83890.28;;;16.90;30.17
70437;BME280;57877;39.750;-104.894;2023-05-22T07:12:21;83894.10;;;16.72;30.56
70437;BME280;57877;39.750;-104.894;2023-05-22T07:14:46;83893.68;;;16.80;30.35
70437;BME280;57877;39.750;-104.894;2023-05-22T07:17:11;83894.65;;;16.33;30.65
70437;BME280;57877;39.750;-104.894;2023-05-22T07:19:36;83893.36;;;16.59;30.44
70437;BME280;57877;39.750;-104.894;2023-05-22T07:22:01;83885.86;;;16.75;30.67
70437;BME280;57877;39.750;-104.894;2023-05-22T07:24:27;83884.40;;;16.67;30.48
70437;BME280;57877;39.750;-104.894;2023-05-22T07:26:53;83885.22;;;16.15;30.67
70437;BME280;57877;39.750;-104.894;2023-05-22T07:29:19;83884.01;;;16.51;30.54
70437;BME280;57877;39.750;-104.894;2023-05-22T07:31:44;83881.45;;;16.28;30.62
70437;BME280;57877;39.750;-104.894;2023-05-22T07:34:10;83881.32;;;16.42;30.66
70437;BME280;57877;39.750;-104.894;2023-05-22T07:36:35;83880.69;;;15.92;31.17
70437;BME280;57877;39.750;-104.894;2023-05-22T07:39:01;83880.07;;;16.20;30.95
70437;BME280;57877;39.750;-104.894;2023-05-22T07:41:26;83879.46;;;16.44;30.98
70437;BME280;57877;39.750;-104.894;2023-05-22T07:43:52;83878.65;;;15.92;31.02
70437;BME280;57877;39.750;-104.894;2023-05-22T07:46:18;83878.77;;;15.91;30.97
70437;BME280;57877;39.750;-104.894;2023-05-22T07:48:43;83877.59;;;15.99;30.90
70437;BME280;57877;39.750;-104.894;2023-05-22T07:51:08;83875.47;;;15.79;31.19
70437;BME280;57877;39.750;-104.894;2023-05-22T07:53:33;83870.09;;;16.06;31.18
70437;BME280;57877;39.750;-104.894;2023-05-22T07:55:59;83866.46;;;16.12;31.35
70437;BME280;57877;39.750;-104.894;2023-05-22T07:58:25;83863.24;;;16.02;31.30
70437;BME280;57877;39.750;-104.894;2023-05-22T08:00:51;83868.11;;;15.40;31.65
70437;BME280;57877;39.750;-104.894;2023-05-22T08:03:17;83868.35;;;15.79;31.66
70437;BME280;57877;39.750;-104.894;2023-05-22T08:05:42;83869.05;;;15.64;31.61
70437;BME280;57877;39.750;-104.894;2023-05-22T08:08:08;83871.07;;;15.23;31.68
70437;BME280;57877;39.750;-104.894;2023-05-22T08:10:34;83869.28;;;15.48;31.73
70437;BME280;57877;39.750;-104.894;2023-05-22T08:13:00;83869.82;;;15.27;31.91
70437;BME280;57877;39.750;-104.894;2023-05-22T08:15:26;83875.40;;;15.25;32.07
70437;BME280;57877;39.750;-104.894;2023-05-22T08:17:52;83875.49;;;14.84;32.25
70437;BME280;57877;39.750;-104.894;2023-05-22T08:20:18;83874.63;;;15.03;32.36
70437;BME280;57877;39.750;-104.894;2023-05-22T08:22:43;83873.56;;;14.82;32.48
70437;BME280;57877;39.750;-104.894;2023-05-22T08:25:10;83874.65;;;14.65;32.60
70437;BME280;57877;39.750;-104.894;2023-05-22T08:27:35;83873.48;;;14.69;32.81
70437;BME280;57877;39.750;-104.894;2023-05-22T08:30:02;83872.86;;;14.64;32.87
70437;BME280;57877;39.750;-104.894;2023-05-22T08:32:26;83873.77;;;14.69;32.62
70437;BME280;57877;39.750;-104.894;2023-05-22T08:34:52;83871.92;;;14.48;32.79
70437;BME280;57877;39.750;-104.894;2023-05-22T08:37:18;83872.96;;;14.71;32.47
70437;BME280;57877;39.750;-104.894;2023-05-22T08:39:43;83874.09;;;14.68;32.33
70437;BME280;57877;39.750;-104.894;2023-05-22T08:42:08;83871.88;;;14.98;32.57
70437;BME280;57877;39.750;-104.894;2023-05-22T08:44:33;83870.71;;;14.03;32.92
70437;BME280;57877;39.750;-104.894;2023-05-22T08:47:01;83870.07;;;14.56;32.63
70437;BME280;57877;39.750;-104.894;2023-05-22T08:49:25;83869.37;;;14.21;32.98
70437;BME280;57877;39.750;-104.894;2023-05-22T08:51:55;83871.62;;;14.35;32.95
70437;BME280;57877;39.750;-104.894;2023-05-22T08:54:18;83867.95;;;14.22;33.13
70437;BME280;57877;39.750;-104.894;2023-05-22T08:56:42;83866.65;;;14.33;32.93
70437;BME280;57877;39.750;-104.894;2023-05-22T08:59:08;83866.74;;;13.98;33.35
70437;BME280;57877;39.750;-104.894;2023-05-22T09:01:34;83863.13;;;14.08;33.06
70437;BME280;57877;39.750;-104.894;2023-05-22T09:04:00;83865.53;;;14.27;32.82
70437;BME280;57877;39.750;-104.894;2023-05-22T09:06:24;83863.75;;;14.40;32.67
70437;BME280;57877;39.750;-104.894;2023-05-22T09:08:49;83860.89;;;14.36;32.71
70437;BME280;57877;39.750;-104.894;2023-05-22T09:11:14;83861.72;;;14.51;32.50
70437;BME280;57877;39.750;-104.894;2023-05-22T09:13:40;83858.86;;;14.36;32.29
70437;BME280;57877;39.750;-104.894;2023-05-22T09:16:09;83859.55;;;14.36;32.29
70437;BME280;57877;39.750;-104.894;2023-05-22T09:18:32;83860.85;;;14.47;32.44
70437;BME280;57877;39.750;-104.894;2023-05-22T09:20:58;83860.91;;;14.28;32.36
70437;BME280;57877;39.750;-104.894;2023-05-22T09:23:24;83860.97;;;14.83;32.23
70437;BME280;57877;39.750;-104.894;2023-05-22T09:25:48;83859.77;;;14.64;32.25
70437;BME280;57877;39.750;-104.894;2023-05-22T09:28:13;83860.79;;;14.15;32.19
70437;BME280;57877;39.750;-104.894;2023-05-22T09:30:38;83862.45;;;14.40;32.19
70437;BME280;57877;39.750;-104.894;2023-05-22T09:33:04;83865.17;;;14.27;32.35
70437;BME280;57877;39.750;-104.894;2023-05-22T09:35:31;83869.06;;;14.16;32.80
70437;BME280;57877;39.750;-104.894;2023-05-22T09:37:54;83869.21;;;14.23;32.66
70437;BME280;57877;39.750;-104.894;2023-05-22T09:40:19;83870.41;;;14.29;32.57
70437;BME280;57877;39.750;-104.894;2023-05-22T09:42:44;83869.06;;;14.17;32.78
70437;BME280;57877;39.750;-104.894;2023-05-22T09:45:10;83869.13;;;14.13;32.87
70437;BME280;57877;39.750;-104.894;2023-05-22T09:47:35;83864.54;;;14.24;32.84
70437;BME280;57877;39.750;-104.894;2023-05-22T09:50:02;83862.27;;;14.27;32.90
70437;BME280;57877;39.750;-104.894;2023-05-22T09:52:28;83861.00;;;13.88;33.26
70437;BME280;57877;39.750;-104.894;2023-05-22T09:54:52;83861.85;;;14.23;33.07
70437;BME280;57877;39.750;-104.894;2023-05-22T09:57:17;83863.49;;;14.16;33.23
70437;BME280;57877;39.750;-104.894;2023-05-22T09:59:45;83862.59;;;14.34;32.99
70437;BME280;57877;39.750;-104.894;2023-05-22T10:02:08;83858.88;;;14.09;33.08
70437;BME280;57877;39.750;-104.894;2023-05-22T10:04:34;83862.92;;;14.06;33.42
70437;BME280;57877;39.750;-104.894;2023-05-22T10:07:01;83863.39;;;14.12;33.34
70437;BME280;57877;39.750;-104.894;2023-05-22T10:09:27;83862.28;;;13.99;33.57
70437;BME280;57877;39.750;-104.894;2023-05-22T10:11:53;83858.81;;;14.34;33.17
70437;BME280;57877;39.750;-104.894;2023-05-22T10:14:17;83856.28;;;14.13;33.44
70437;BME280;57877;39.750;-104.894;2023-05-22T10:16:43;83856.25;;;13.55;34.37
70437;BME280;57877;39.750;-104.894;2023-05-22T10:19:07;83856.04;;;13.78;33.96
70437;BME280;57877;39.750;-104.894;2023-05-22T10:21:35;83851.79;;;13.62;34.60
70437;BME280;57877;39.750;-104.894;2023-05-22T10:24:01;83848.66;;;13.40;34.56
70437;BME280;57877;39.750;-104.894;2023-05-22T10:26:26;83844.87;;;13.37;34.92
70437;BME280;57877;39.750;-104.894;2023-05-22T10:28:55;83843.70;;;13.65;34.88
70437;BME280;57877;39.750;-104.894;2023-05-22T10:31:24;83842.08;;;13.25;34.89
70437;BME280;57877;39.750;-104.894;2023-05-22T10:33:47;83840.05;;;13.11;35.05
70437;BME280;57877;39.750;-104.894;2023-05-22T10:36:10;83840.09;;;12.99;35.18
70437;BME280;57877;39.750;-104.894;2023-05-22T10:38:45;83838.01;;;13.11;35.34
70437;BME280;57877;39.750;-104.894;2023-05-22T10:40:58;83835.03;;;12.88;35.11
70437;BME280;57877;39.750;-104.894;2023-05-22T10:43:23;83836.06;;;12.91;35.42
70437;BME280;57877;39.750;-104.894;2023-05-22T10:45:48;83836.18;;;12.79;35.58
70437;BME280;57877;39.750;-104.894;2023-05-22T10:48:13;83832.24;;;12.24;36.05
70437;BME280;57877;39.750;-104.894;2023-05-22T10:50:38;83838.13;;;12.68;35.49
70437;BME280;57877;39.750;-104.894;2023-05-22T10:55:28;83842.07;;;12.99;35.14
70437;BME280;57877;39.750;-104.894;2023-05-22T10:57:54;83841.39;;;13.00;35.17
70437;BME280;57877;39.750;-104.894;2023-05-22T11:00:20;83838.20;;;13.16;34.75
70437;BME280;57877;39.750;-104.894;2023-05-22T11:02:45;83836.13;;;13.48;34.40
70437;BME280;57877;39.750;-104.894;2023-05-22T11:07:39;83832.69;;;13.10;34.82
70437;BME280;57877;39.750;-104.894;2023-05-22T11:10:00;83832.06;;;12.95;34.99
70437;BME280;57877;39.750;-104.894;2023-05-22T11:12:26;83829.32;;;12.97;34.94
70437;BME280;57877;39.750;-104.894;2023-05-22T11:14:52;83826.42;;;12.88;35.10
70437;BME280;57877;39.750;-104.894;2023-05-22T11:17:17;83824.61;;;12.97;35.13
70437;BME280;57877;39.750;-104.894;2023-05-22T11:19:41;83823.06;;;13.08;34.82
70437;BME280;57877;39.750;-104.894;2023-05-22T11:22:06;83824.88;;;12.54;35.56
70437;BME280;57877;39.750;-104.894;2023-05-22T11:24:33;83823.84;;;12.50;35.62
70437;BME280;57877;39.750;-104.894;2023-05-22T11:27:04;83824.21;;;12.51;35.70
70437;BME280;57877;39.750;-104.894;2023-05-22T11:29:23;83825.25;;;12.49;35.70
70437;BME280;57877;39.750;-104.894;2023-05-22T11:31:49;83819.82;;;12.91;35.08
70437;BME280;57877;39.750;-104.894;2023-05-22T11:34:21;83820.21;;;13.00;34.89
70437;BME280;57877;39.750;-104.894;2023-05-22T11:36:41;83819.98;;;13.21;34.71
70437;BME280;57877;39.750;-104.894;2023-05-22T11:39:06;83819.22;;;13.03;34.43
70437;BME280;57877;39.750;-104.894;2023-05-22T11:41:33;83814.20;;;13.33;34.44
70437;BME280;57877;39.750;-104.894;2023-05-22T11:43:59;83815.46;;;12.92;34.51
70437;BME280;57877;39.750;-104.894;2023-05-22T11:46:24;83812.00;;;12.41;35.04
70437;BME280;57877;39.750;-104.894;2023-05-22T11:48:50;83812.65;;;12.68;35.02
70437;BME280;57877;39.750;-104.894;2023-05-22T11:51:19;83812.29;;;12.74;34.90
70437;BME280;57877;39.750;-104.894;2023-05-22T11:53:40;83814.90;;;12.71;34.97
70437;BME280;57877;39.750;-104.894;2023-05-22T11:56:06;83814.88;;;12.74;35.01
70437;BME280;57877;39.750;-104.894;2023-05-22T11:58:32;83815.26;;;12.64;34.97
70437;BME280;57877;39.750;-104.894;2023-05-22T12:00:59;83816.34;;;13.11;34.42
70437;BME280;57877;39.750;-104.894;2023-05-22T12:03:24;83817.26;;;12.95;34.55
70437;BME280;57877;39.750;-104.894;2023-05-22T12:05:50;83816.26;;;13.11;34.37
70437;BME280;57877;39.750;-104.894;2023-05-22T12:08:15;83818.19;;;12.89;34.69
70437;BME280;57877;39.750;-104.894;2023-05-22T12:10:45;83817.24;;;12.87;34.66
70437;BME280;57877;39.750;-104.894;2023-05-22T12:13:06;83817.92;;;13.04;34.38
70437;BME280;57877;39.750;-104.894;2023-05-22T12:15:30;83818.33;;;12.65;34.52
70437;BME280;57877;39.750;-104.894;2023-05-22T12:17:56;83815.66;;;12.93;34.42
70437;BME280;57877;39.750;-104.894;2023-05-22T12:20:21;83814.68;;;12.86;34.58
70437;BME280;57877;39.750;-104.894;2023-05-22T12:22:48;83815.71;;;12.88;34.44
70437;BME280;57877;39.750;-104.894;2023-05-22T12:25:15;83817.67;;;12.89;34.17